createdAt,value
2018-04-06T00:01:16.981Z,2.50
2018-04-06T00:03:44.629Z,2.70
2018-04-06T00:06:12.175Z,3.73
2018-04-06T00:08:39.823Z,3.13
2018-04-06T00:11:07.857Z,3.00
2018-04-06T00:13:35.418Z,3.57
2018-04-06T00:16:03.069Z,3.93
2018-04-06T00:18:30.727Z,4.43
2018-04-06T00:20:58.315Z,3.50
2018-04-06T00:23:26.760Z,3.77
2018-04-06T00:25:54.672Z,3.60
2018-04-06T00:28:22.160Z,6.90
2018-04-06T00:30:49.812Z,3.97
2018-04-06T00:33:17.542Z,3.43
2018-04-06T00:35:45.185Z,4.77
2018-04-06T00:38:12.672Z,4.13
2018-04-06T00:40:40.436Z,2.90
2018-04-06T00:43:08.101Z,3.37
2018-04-06T00:45:36.433Z,3.13
2018-04-06T00:48:04.034Z,5.40
2018-04-06T00:50:31.597Z,2.93
2018-04-06T00:52:59.275Z,2.47
2018-04-06T00:55:26.776Z,3.40
2018-04-06T00:57:54.344Z,5.60
2018-04-06T01:00:22.085Z,4.27
2018-04-06T01:02:49.557Z,4.83
2018-04-06T01:05:17.049Z,4.13
2018-04-06T01:07:44.696Z,2.63
2018-04-06T01:10:15.777Z,3.33
2018-04-06T01:12:43.390Z,3.93
2018-04-06T01:15:10.973Z,3.67
2018-04-06T01:17:39.329Z,3.10
2018-04-06T01:20:06.860Z,3.80
2018-04-06T01:22:34.548Z,4.67
2018-04-06T01:25:02.051Z,4.40
2018-04-06T01:27:29.545Z,5.90
2018-04-06T01:29:57.261Z,5.87
2018-04-06T01:32:25.607Z,4.10
2018-04-06T01:34:53.101Z,3.83
2018-04-06T01:37:20.708Z,3.87
2018-04-06T01:39:48.312Z,5.57
2018-04-06T01:42:15.971Z,4.07
2018-04-06T01:44:43.471Z,4.27
2018-04-06T01:47:11.711Z,3.80
2018-04-06T01:49:39.952Z,4.80
2018-04-06T01:52:07.501Z,5.03
2018-04-06T01:54:35.108Z,3.90
2018-04-06T01:57:02.599Z,4.40
2018-04-06T01:59:30.102Z,4.90
2018-04-06T02:01:57.575Z,4.30
2018-04-06T02:04:25.789Z,4.50
2018-04-06T02:06:53.249Z,4.50
2018-04-06T02:09:20.740Z,5.20
2018-04-06T02:11:48.265Z,6.77
2018-04-06T02:14:15.733Z,4.20
2018-04-06T02:16:43.216Z,4.30
2018-04-06T02:19:10.645Z,5.20
2018-04-06T02:21:38.140Z,8.30
2018-04-06T02:24:06.376Z,5.10
2018-04-06T02:26:33.861Z,7.73
2018-04-06T02:29:01.325Z,4.90
2018-04-06T02:31:28.815Z,6.10
2018-04-06T02:33:56.304Z,5.80
2018-04-06T02:36:23.760Z,6.20
2018-04-06T02:38:51.281Z,5.53
2018-04-06T02:41:18.813Z,4.77
2018-04-06T02:43:47.138Z,6.20
2018-04-06T02:46:14.628Z,8.10
2018-04-06T02:48:42.216Z,8.40
2018-04-06T02:51:09.731Z,10.87
2018-04-06T02:53:37.230Z,6.23
2018-04-06T02:56:04.684Z,7.53
2018-04-06T02:58:32.151Z,5.70
2018-04-06T03:00:59.694Z,6.13
2018-04-06T03:03:27.192Z,6.07
2018-04-06T03:05:54.686Z,5.20
2018-04-06T03:08:22.141Z,6.30
2018-04-06T03:10:49.644Z,4.80
2018-04-06T03:13:17.115Z,6.30
2018-04-06T03:15:44.597Z,6.30
2018-04-06T03:18:12.085Z,5.63
2018-04-06T03:20:39.545Z,6.10
2018-04-06T03:23:06.997Z,5.50
2018-04-06T03:25:34.550Z,5.90
2018-04-06T03:28:02.061Z,7.80
2018-04-06T03:30:29.570Z,6.10
2018-04-06T03:32:57.004Z,4.83
2018-04-06T03:35:24.526Z,5.83
2018-04-06T03:37:51.996Z,6.57
2018-04-06T03:40:20.207Z,5.43
2018-04-06T03:42:47.863Z,5.50
2018-04-06T03:45:15.369Z,6.00
2018-04-06T03:47:42.883Z,6.50
2018-04-06T03:50:10.352Z,5.27
2018-04-06T03:52:37.848Z,5.40
2018-04-06T03:55:05.363Z,5.63
2018-04-06T03:57:32.845Z,5.70
2018-04-06T04:00:00.332Z,6.40
2018-04-06T04:02:27.859Z,5.60
2018-04-06T04:04:55.276Z,6.00
2018-04-06T04:07:22.731Z,5.90
2018-04-06T04:09:50.232Z,7.80
2018-04-06T04:12:17.693Z,12.87
2018-04-06T04:14:45.940Z,10.87
2018-04-06T04:17:13.420Z,7.13
2018-04-06T04:19:40.953Z,13.53
2018-04-06T04:22:08.429Z,7.83
2018-04-06T04:24:35.897Z,7.20
2018-04-06T04:27:03.408Z,8.13
2018-04-06T04:29:30.892Z,7.17
2018-04-06T04:31:58.345Z,7.27
2018-04-06T04:34:25.841Z,6.82
2018-04-06T04:36:53.264Z,8.37
2018-04-06T04:39:20.712Z,6.80
2018-04-06T04:41:48.172Z,6.57
2018-04-06T04:44:15.641Z,8.20
2018-04-06T04:46:43.149Z,7.53
2018-04-06T04:49:11.362Z,9.43
2018-04-06T04:51:38.888Z,7.30
2018-04-06T04:54:06.406Z,7.73
2018-04-06T04:56:34.703Z,8.20
2018-04-06T04:59:02.180Z,7.90
2018-04-06T05:01:29.728Z,11.88
2018-04-06T05:03:58.025Z,10.10
2018-04-06T05:06:25.512Z,12.30
2018-04-06T05:08:53.061Z,8.73
2018-04-06T05:11:20.810Z,9.23
2018-04-06T05:13:49.010Z,9.93
2018-04-06T05:16:16.891Z,8.40
2018-04-06T05:18:44.677Z,6.40
2018-04-06T05:21:12.164Z,7.90
2018-04-06T05:23:40.445Z,9.77
2018-04-06T05:26:07.948Z,8.43
2018-04-06T05:28:35.397Z,9.23
2018-04-06T05:31:02.920Z,9.33
2018-04-06T05:33:31.782Z,9.10
2018-04-06T05:35:59.261Z,10.07
2018-04-06T05:38:27.530Z,9.87
2018-04-06T05:40:55.103Z,9.30
2018-04-06T05:43:22.597Z,7.33
2018-04-06T05:45:50.156Z,9.07
2018-04-06T05:48:17.672Z,10.33
2018-04-06T05:50:45.243Z,10.60
2018-04-06T05:53:12.736Z,8.80
2018-04-06T05:55:41.669Z,8.33
2018-04-06T05:58:09.140Z,7.93
2018-04-06T06:00:36.623Z,12.67
2018-04-06T06:03:04.216Z,11.27
2018-04-06T06:05:31.682Z,11.23
2018-04-06T06:08:00.028Z,8.23
2018-04-06T06:10:27.513Z,10.67
2018-04-06T06:12:54.987Z,13.13
2018-04-06T06:15:22.456Z,11.07
2018-04-06T06:17:49.938Z,9.13
2018-04-06T06:20:17.460Z,11.70
2018-04-06T06:22:44.897Z,11.93
2018-04-06T06:25:12.368Z,13.10
2018-04-06T06:27:39.811Z,13.00
2018-04-06T06:30:07.330Z,13.20
2018-04-06T06:32:34.812Z,14.73
2018-04-06T06:35:02.251Z,9.73
2018-04-06T06:37:29.905Z,11.97
2018-04-06T06:39:57.393Z,11.97
2018-04-06T06:42:24.839Z,13.20
2018-04-06T06:44:52.288Z,12.73
2018-04-06T06:47:19.731Z,11.50
2018-04-06T06:49:47.181Z,14.10
2018-04-06T06:52:14.607Z,12.70
2018-04-06T06:54:42.056Z,15.17
2018-04-06T06:57:09.499Z,14.70
2018-04-06T06:59:37.008Z,15.10
2018-04-06T07:02:04.463Z,15.17
2018-04-06T07:04:31.895Z,13.97
2018-04-06T07:06:59.354Z,14.50
2018-04-06T07:09:26.837Z,14.37
2018-04-06T07:11:54.308Z,15.73
2018-04-06T07:14:21.756Z,16.50
2018-04-06T07:16:49.204Z,19.00
2018-04-06T07:19:16.688Z,13.50
2018-04-06T07:21:44.250Z,14.77
2018-04-06T07:24:12.345Z,14.47
2018-04-06T07:26:39.804Z,15.83
2018-04-06T07:29:07.282Z,13.60
2018-04-06T07:31:35.129Z,13.30
2018-04-06T07:34:02.599Z,13.97
2018-04-06T07:36:30.069Z,13.03
2018-04-06T07:38:57.532Z,13.47
2018-04-06T07:41:25.012Z,12.60
2018-04-06T07:43:53.444Z,13.60
2018-04-06T07:46:20.890Z,12.53
2018-04-06T07:48:48.367Z,12.30
2018-04-06T07:51:15.812Z,11.87
2018-04-06T07:53:43.265Z,13.47
2018-04-06T07:56:10.768Z,13.10
2018-04-06T07:58:38.203Z,14.30
2018-04-06T08:01:05.659Z,15.40
2018-04-06T08:03:33.103Z,14.20
2018-04-06T08:06:00.578Z,14.30
2018-04-06T08:08:28.024Z,14.97
2018-04-06T08:10:57.096Z,16.20
2018-04-06T08:13:24.612Z,14.53
2018-04-06T08:15:52.037Z,13.03
2018-04-06T08:18:19.480Z,12.20
2018-04-06T08:20:46.944Z,13.43
2018-04-06T08:23:14.401Z,14.60
2018-04-06T08:25:41.851Z,12.40
2018-04-06T08:28:09.513Z,14.40
2018-04-06T08:30:36.964Z,13.77
2018-04-06T08:33:04.419Z,15.47
2018-04-06T08:35:31.953Z,13.27
2018-04-06T08:37:59.459Z,14.20
2018-04-06T08:40:29.082Z,14.13
2018-04-06T08:42:56.606Z,12.70
2018-04-06T08:45:24.140Z,14.00
2018-04-06T08:47:57.433Z,13.77
2018-04-06T08:50:24.976Z,14.93
2018-04-06T08:52:52.428Z,15.07
2018-04-06T08:55:20.661Z,13.33
2018-04-06T08:57:48.132Z,14.37
2018-04-06T09:00:15.576Z,11.90
2018-04-06T09:02:43.169Z,12.40
2018-04-06T09:05:10.643Z,13.40
2018-04-06T09:07:38.863Z,13.60
2018-04-06T09:10:06.355Z,13.30
2018-04-06T09:12:33.766Z,12.73
2018-04-06T09:15:01.211Z,13.80
2018-04-06T09:17:28.999Z,13.10
2018-04-06T09:19:56.457Z,13.87
2018-04-06T09:22:23.973Z,12.90
2018-04-06T09:24:51.489Z,15.97
2018-04-06T09:27:19.100Z,11.37
2018-04-06T09:29:47.369Z,12.40
2018-04-06T09:32:15.568Z,13.77
2018-04-06T09:34:43.136Z,11.80
2018-04-06T09:37:10.598Z,11.97
2018-04-06T09:39:38.057Z,11.40
2018-04-06T09:42:05.514Z,10.70
2018-04-06T09:44:32.979Z,9.73
2018-04-06T09:47:00.427Z,9.30
2018-04-06T09:49:27.896Z,10.70
2018-04-06T09:51:55.391Z,12.03
2018-04-06T09:54:22.842Z,12.40
2018-04-06T09:56:50.299Z,11.17
2018-04-06T09:59:17.793Z,12.53
2018-04-06T10:01:48.228Z,10.50
2018-04-06T10:04:15.657Z,10.07
2018-04-06T10:06:43.138Z,10.93
2018-04-06T10:09:10.605Z,10.83
2018-04-06T10:11:38.057Z,9.83
2018-04-06T10:14:05.519Z,12.07
2018-04-06T10:16:32.971Z,10.47
2018-04-06T10:19:00.437Z,10.70
2018-04-06T10:21:27.909Z,10.67
2018-04-06T10:23:55.361Z,11.20
2018-04-06T10:26:22.824Z,10.63
2018-04-06T10:28:50.286Z,9.50
2018-04-06T10:31:17.743Z,10.63
2018-04-06T10:33:45.202Z,9.27
2018-04-06T10:36:12.678Z,11.63
2018-04-06T10:38:40.128Z,9.37
2018-04-06T10:41:07.616Z,9.13
2018-04-06T10:43:35.056Z,9.70
2018-04-06T10:46:02.502Z,11.07
2018-04-06T10:48:29.975Z,8.10
2018-04-06T10:50:57.460Z,8.40
2018-04-06T10:53:24.945Z,7.80
2018-04-06T10:55:52.357Z,9.03
2018-04-06T10:58:19.808Z,9.83
2018-04-06T11:00:47.256Z,8.00
2018-04-06T11:03:14.723Z,10.90
2018-04-06T11:05:42.148Z,8.50
2018-04-06T11:08:09.601Z,9.10
2018-04-06T11:10:37.074Z,9.10
2018-04-06T11:13:04.564Z,7.10
2018-04-06T11:15:32.048Z,7.63
2018-04-06T11:17:59.492Z,7.60
2018-04-06T11:20:26.947Z,12.40
2018-04-06T11:22:55.298Z,7.37
2018-04-06T11:25:22.732Z,6.10
2018-04-06T11:27:50.196Z,6.77
2018-04-06T11:30:17.701Z,6.03
2018-04-06T11:32:45.908Z,6.00
2018-04-06T11:35:13.386Z,5.33
2018-04-06T11:37:40.897Z,8.30
2018-04-06T11:40:08.344Z,5.17
2018-04-06T11:42:35.815Z,4.63
2018-04-06T11:45:03.350Z,4.90
2018-04-06T11:47:30.797Z,5.03
2018-04-06T11:49:58.986Z,5.90
2018-04-06T11:52:27.195Z,4.73
2018-04-06T11:54:54.632Z,5.20
2018-04-06T11:57:22.136Z,8.17
2018-04-06T11:59:49.622Z,5.33
2018-04-06T12:02:17.023Z,4.77
2018-04-06T12:04:44.481Z,5.40
2018-04-06T12:07:11.885Z,5.30
2018-04-06T12:09:39.332Z,4.00
2018-04-06T12:12:06.784Z,4.80
2018-04-06T12:14:34.219Z,4.17
2018-04-06T12:17:01.665Z,4.23
2018-04-06T12:19:29.095Z,3.90
2018-04-06T12:21:56.711Z,4.53
2018-04-06T12:24:24.181Z,4.00
2018-04-06T12:26:51.624Z,3.90
2018-04-06T12:29:19.091Z,6.33
2018-04-06T12:31:46.531Z,4.60
2018-04-06T12:34:14.004Z,4.50
2018-04-06T12:36:41.445Z,4.23
2018-04-06T12:39:08.893Z,4.27
2018-04-06T12:41:36.407Z,5.27
2018-04-06T12:44:03.903Z,4.50
2018-04-06T12:46:31.348Z,6.10
2018-04-06T12:48:58.856Z,4.47
2018-04-06T12:51:26.489Z,4.43
2018-04-06T12:53:53.940Z,7.17
2018-04-06T12:56:21.393Z,8.93
2018-04-06T12:58:48.843Z,6.40
2018-04-06T13:01:16.308Z,4.63
2018-04-06T13:03:43.830Z,4.33
2018-04-06T13:06:11.284Z,7.03
2018-04-06T13:08:38.740Z,4.97
2018-04-06T13:11:06.198Z,4.03
2018-04-06T13:13:33.650Z,2.50
2018-04-06T13:16:01.112Z,4.03
2018-04-06T13:18:28.537Z,5.20
2018-04-06T13:20:55.974Z,5.70
2018-04-06T13:23:23.431Z,5.73
2018-04-06T13:25:50.882Z,3.50
2018-04-06T13:28:18.354Z,6.03
2018-04-06T13:30:45.796Z,7.17
2018-04-06T13:33:13.255Z,4.80
2018-04-06T13:35:40.718Z,6.67
2018-04-06T13:38:08.167Z,5.93
2018-04-06T13:40:35.612Z,3.97
2018-04-06T13:43:03.088Z,4.93
2018-04-06T13:45:30.533Z,3.37
2018-04-06T13:47:57.985Z,4.40
2018-04-06T13:50:25.425Z,6.10
2018-04-06T13:52:52.916Z,4.43
2018-04-06T13:55:20.354Z,4.13
2018-04-06T13:57:47.867Z,4.47
2018-04-06T14:00:15.347Z,4.93
2018-04-06T14:02:42.784Z,5.77
2018-04-06T14:05:10.225Z,5.07
2018-04-06T14:07:37.734Z,8.47
2018-04-06T14:10:05.214Z,4.27
2018-04-06T14:12:32.774Z,6.03
2018-04-06T14:15:00.213Z,4.93
2018-04-06T14:17:27.702Z,4.70
2018-04-06T14:19:55.170Z,4.17
2018-04-06T14:22:22.608Z,3.23
2018-04-06T14:24:50.093Z,4.83
2018-04-06T14:27:17.516Z,3.43
2018-04-06T14:29:44.973Z,4.90
2018-04-06T14:32:12.416Z,5.00
2018-04-06T14:34:39.848Z,4.13
2018-04-06T14:37:08.044Z,4.80
2018-04-06T14:39:35.528Z,5.50
2018-04-06T14:42:02.980Z,4.93
2018-04-06T14:44:30.456Z,4.17
2018-04-06T14:46:57.889Z,5.93
2018-04-06T14:49:25.331Z,3.63
2018-04-06T14:51:52.766Z,4.27
2018-04-06T14:54:20.225Z,4.53
2018-04-06T14:56:47.678Z,5.43
2018-04-06T14:59:15.935Z,4.50
2018-04-06T15:01:43.410Z,5.60
2018-04-06T15:04:11.626Z,3.80
2018-04-06T15:06:39.084Z,3.67
2018-04-06T15:09:06.547Z,5.47
2018-04-06T15:11:33.991Z,5.70
2018-04-06T15:14:01.448Z,4.30
2018-04-06T15:16:28.892Z,5.87
2018-04-06T15:18:56.344Z,6.50
2018-04-06T15:21:23.874Z,3.83
2018-04-06T15:23:52.186Z,4.53
2018-04-06T15:26:19.645Z,4.33
2018-04-06T15:28:47.074Z,4.67
2018-04-06T15:31:14.520Z,5.93
2018-04-06T15:33:42.009Z,5.70
2018-04-06T15:36:09.451Z,4.20
2018-04-06T15:38:37.674Z,5.93
2018-04-06T15:41:05.101Z,4.73
2018-04-06T15:43:32.564Z,7.80
2018-04-06T15:46:00.033Z,5.73
2018-04-06T15:48:27.505Z,7.10
2018-04-06T15:50:54.956Z,6.77
2018-04-06T15:53:22.419Z,7.73
2018-04-06T15:55:49.874Z,7.10
2018-04-06T15:58:17.319Z,7.60
2018-04-06T16:00:44.774Z,7.27
2018-04-06T16:03:12.239Z,11.00
2018-04-06T16:05:39.699Z,8.17
2018-04-06T16:08:07.172Z,10.73
2018-04-06T16:10:34.626Z,8.67
2018-04-06T16:13:02.087Z,8.97
2018-04-06T16:15:29.548Z,8.53
2018-04-06T16:17:57.019Z,9.33
2018-04-06T16:20:24.509Z,12.53
2018-04-06T16:22:52.693Z,9.37
2018-04-06T16:25:20.145Z,10.07
2018-04-06T16:27:47.612Z,12.13
2018-04-06T16:30:15.048Z,9.77
2018-04-06T16:32:42.493Z,9.60
2018-04-06T16:35:09.936Z,10.10
2018-04-06T16:37:37.390Z,11.50
2018-04-06T16:40:04.841Z,10.63
2018-04-06T16:42:32.322Z,10.50
2018-04-06T16:44:59.748Z,9.90
2018-04-06T16:47:27.200Z,10.53
2018-04-06T16:49:54.641Z,10.73
2018-04-06T16:52:22.193Z,11.47
2018-04-06T16:54:49.661Z,10.93
2018-04-06T16:57:17.106Z,11.00
2018-04-06T16:59:44.569Z,11.07
2018-04-06T17:02:12.017Z,11.03
2018-04-06T17:04:39.454Z,11.00
2018-04-06T17:07:06.894Z,9.70
2018-04-06T17:09:34.352Z,11.10
2018-04-06T17:12:01.792Z,10.90
2018-04-06T17:14:29.283Z,12.07
2018-04-06T17:16:56.723Z,11.13
2018-04-06T17:19:24.203Z,10.40
2018-04-06T17:21:51.638Z,12.57
2018-04-06T17:24:19.087Z,11.03
2018-04-06T17:26:46.536Z,12.67
2018-04-06T17:29:13.999Z,12.50
2018-04-06T17:31:41.432Z,11.40
2018-04-06T17:34:08.888Z,11.40
2018-04-06T17:36:36.391Z,11.43
2018-04-06T17:39:03.818Z,11.20
2018-04-06T17:41:31.261Z,10.83
2018-04-06T17:43:58.701Z,11.47
2018-04-06T17:46:26.160Z,13.53
2018-04-06T17:48:53.611Z,11.63
2018-04-06T17:51:21.077Z,11.00
2018-04-06T17:53:48.495Z,11.80
2018-04-06T17:56:15.988Z,9.93
2018-04-06T17:58:43.440Z,10.70
2018-04-06T18:01:10.890Z,9.80
2018-04-06T18:03:38.356Z,12.90
2018-04-06T18:06:05.827Z,12.20
2018-04-06T18:08:33.285Z,11.10
2018-04-06T18:11:00.722Z,14.80
2018-04-06T18:13:28.180Z,10.83
2018-04-06T18:15:55.620Z,12.47
2018-04-06T18:18:23.073Z,12.23
2018-04-06T18:20:50.521Z,11.70
2018-04-06T18:23:17.979Z,10.83
2018-04-06T18:25:45.417Z,12.00
2018-04-06T18:28:13.667Z,12.20
2018-04-06T18:30:41.106Z,11.17
2018-04-06T18:33:08.563Z,11.23
2018-04-06T18:35:36.012Z,12.20
2018-04-06T18:38:03.469Z,10.40
2018-04-06T18:40:30.942Z,11.67
2018-04-06T18:42:58.389Z,12.00
2018-04-06T18:45:25.832Z,12.27
2018-04-06T18:47:53.280Z,12.53
2018-04-06T18:50:20.729Z,11.67
2018-04-06T18:52:48.190Z,12.40
2018-04-06T18:55:15.652Z,11.70
2018-04-06T18:57:43.152Z,12.53
2018-04-06T19:00:10.608Z,12.97
2018-04-06T19:02:38.079Z,13.67
2018-04-06T19:05:05.525Z,12.23
2018-04-06T19:07:32.963Z,12.20
2018-04-06T19:10:00.421Z,12.30
2018-04-06T19:12:28.625Z,11.63
2018-04-06T19:14:56.100Z,12.80
2018-04-06T19:17:23.539Z,14.50
2018-04-06T19:19:50.983Z,12.53
2018-04-06T19:22:18.433Z,13.50
2018-04-06T19:24:46.038Z,12.90
2018-04-06T19:27:13.492Z,13.70
2018-04-06T19:29:40.927Z,13.10
2018-04-06T19:32:08.380Z,12.53
2018-04-06T19:34:35.814Z,12.73
2018-04-06T19:37:03.279Z,14.80
2018-04-06T19:39:30.715Z,12.80
2018-04-06T19:41:58.172Z,13.53
2018-04-06T19:44:25.636Z,12.80
2018-04-06T19:46:53.159Z,12.90
2018-04-06T19:49:20.608Z,14.23
2018-04-06T19:51:48.047Z,13.93
2018-04-06T19:54:15.504Z,13.57
2018-04-06T19:56:42.949Z,12.73
2018-04-06T19:59:10.403Z,14.17
2018-04-06T20:01:37.841Z,13.73
2018-04-06T20:04:05.292Z,12.37
2018-04-06T20:06:32.749Z,14.73
2018-04-06T20:09:00.336Z,12.57
2018-04-06T20:11:27.748Z,15.27
2018-04-06T20:13:55.192Z,14.67
2018-04-06T20:16:22.656Z,13.13
2018-04-06T20:18:50.108Z,14.23
2018-04-06T20:21:17.559Z,14.67
2018-04-06T20:23:45.743Z,13.60
2018-04-06T20:26:13.190Z,15.07
2018-04-06T20:28:40.655Z,13.73
2018-04-06T20:31:08.313Z,13.50
2018-04-06T20:33:35.771Z,13.47
2018-04-06T20:36:03.201Z,14.17
2018-04-06T20:38:30.648Z,13.80
2018-04-06T20:40:58.084Z,13.60
2018-04-06T20:43:25.536Z,15.30
2018-04-06T20:45:53.000Z,15.17
2018-04-06T20:48:20.445Z,15.20
2018-04-06T20:50:47.870Z,16.87
2018-04-06T20:53:15.426Z,16.80
2018-04-06T20:55:43.167Z,18.67
2018-04-06T20:58:10.583Z,18.37
2018-04-06T21:00:38.032Z,20.37
2018-04-06T21:03:05.485Z,22.10
2018-04-06T21:05:32.929Z,20.83
2018-04-06T21:08:00.374Z,20.40
2018-04-06T21:10:27.821Z,19.87
2018-04-06T21:12:55.268Z,20.17
2018-04-06T21:15:23.502Z,20.70
2018-04-06T21:17:51.536Z,20.60
2018-04-06T21:20:18.998Z,22.07
2018-04-06T21:22:46.423Z,23.37
2018-04-06T21:25:13.868Z,21.00
2018-04-06T21:27:41.338Z,22.43
2018-04-06T21:30:08.786Z,20.77
2018-04-06T21:32:36.269Z,21.57
2018-04-06T21:35:03.699Z,22.93
2018-04-06T21:37:31.193Z,23.83
2018-04-06T21:39:58.633Z,22.10
2018-04-06T21:42:26.869Z,22.60
2018-04-06T21:44:54.319Z,21.10
2018-04-06T21:47:21.776Z,19.57
2018-04-06T21:49:50.030Z,21.13
2018-04-06T21:52:17.498Z,20.63
2018-04-06T21:54:44.935Z,22.23
2018-04-06T21:57:12.394Z,20.80
2018-04-06T21:59:39.832Z,20.80
2018-04-06T22:02:07.332Z,21.40
2018-04-06T22:04:34.761Z,20.27
2018-04-06T22:07:02.204Z,22.17
2018-04-06T22:09:30.407Z,21.30
2018-04-06T22:11:57.863Z,21.20
2018-04-06T22:14:25.311Z,23.27
2018-04-06T22:16:52.753Z,21.43
2018-04-06T22:19:20.984Z,20.80
2018-04-06T22:21:48.422Z,19.63
2018-04-06T22:24:15.887Z,19.33
2018-04-06T22:26:43.319Z,19.83
2018-04-06T22:29:10.775Z,20.70
2018-04-06T22:31:38.227Z,20.13
2018-04-06T22:34:05.683Z,20.17
2018-04-06T22:36:33.128Z,19.70
2018-04-06T22:39:00.580Z,19.50
2018-04-06T22:41:28.795Z,19.90
2018-04-06T22:43:56.244Z,20.80
2018-04-06T22:46:23.668Z,21.93
2018-04-06T22:48:51.116Z,18.20
2018-04-06T22:51:18.555Z,23.97
2018-04-06T22:53:45.991Z,18.07
2018-04-06T22:56:13.436Z,18.97
2018-04-06T22:58:40.897Z,19.63
2018-04-06T23:01:08.340Z,18.60
2018-04-06T23:03:35.896Z,20.10
2018-04-06T23:06:03.336Z,20.87
2018-04-06T23:08:31.546Z,17.50
2018-04-06T23:10:59.008Z,18.90
2018-04-06T23:13:26.459Z,19.67
2018-04-06T23:15:53.915Z,24.23
2018-04-06T23:18:21.349Z,22.60
2018-04-06T23:20:48.779Z,26.13
2018-04-06T23:23:16.998Z,24.43
2018-04-06T23:25:44.543Z,29.00
2018-04-06T23:28:11.980Z,32.00
2018-04-06T23:30:40.216Z,26.20
2018-04-06T23:33:07.657Z,24.23
2018-04-06T23:35:35.108Z,20.27
2018-04-06T23:38:02.562Z,34.50
2018-04-06T23:40:30.003Z,31.30
2018-04-06T23:42:57.428Z,20.80
2018-04-06T23:45:24.876Z,21.70
2018-04-06T23:47:52.311Z,19.73
2018-04-06T23:50:19.756Z,19.50
2018-04-06T23:52:47.219Z,28.13
2018-04-06T23:55:14.666Z,20.77
2018-04-06T23:57:42.104Z,21.43
